Oklahoma City, OK

10:49 PM CDT on August 27, 2014 (GMT -0500)
Wiley Post | Change Station
CLOSE
Current Station
Airport
Location: Oklahoma City Wiley Post,
Elevation: 1299 ft
Nearby Weather Stations

Elev 1299 ft 35.53 °N, 97.65 °W | Updated 56 minutes ago

Clear
Clear
86 °F
Feels Like 88 °F
N
12
Wind Variable Wind from SE

Today
High -- | Low -- °F
--% Chance of Precip.
Yesterday
High -- | Low -- °F
Precip. -- in
6:58 AM 8:04 PM
Waxing Crescent, 6% visible
Pressure 29.97 in
Visibility 9.0 miles
Clouds Clear
Heat Index 88 °F
Dew Point 66 °F
Humidity 51%
Rainfall 0.00 in
Snow Depth Not available.
UV 0 out of 12
Pollen 10.20 out of 12
Ozone Good
PM2.5 Moderate
Flu Activity Not available.
METAR KPWA 280253Z AUTO 14010KT 9SM CLR 30/19 A3002 RMK AO2 SLP147 T03000189 53013

More Conditions Fewer Conditions

Pressure 29.97 in
Visibility 9.0 miles
Clouds Clear
Heat Index 88 °F
Dew Point 66 °F
Humidity 51%
Rainfall 0.00 in
Snow Depth Not available.
UV 0 out of 12
Pollen 10.20 out of 12
Ozone Good
PM2.5 Moderate
Flu Activity Not available.
METAR KPWA 280253Z AUTO 14010KT 9SM CLR 30/19 A3002 RMK AO2 SLP147 T03000189 53013

More Conditions Fewer Conditions

10-Day Weather Forecast

Almanac

Astronomy

Aug. 27, 2014 Rise Set
Actual Time 6:58 AM CDT 8:04 PM CDT
Civil Twilight 6:32 AM CDT 8:30 PM CDT
Nautical Twilight 6:01 AM CDT 9:01 PM CDT
Astronomical Twilight 5:28 AM CDT 9:33 PM CDT
Moon 8:50 AM CDT (8/27) 9:03 PM CDT (8/27)
Length of Visible Light 13h 57m
Length of Day
13h 05m
Tomorrow will be 2m 6s shorter.
Waxing Crescent, 6% of the Moon is Illuminated
Today
Waxing Crescent
Sep 2
First Quarter
Sep 8
Full
Sep 15
Last Quarter
Sep 24
New

Today's Extremes

State Highs State Lows

Community

WunderPhotos

Upload Photos

1,747,894 photos uploaded!

Nearby

Air Quality

  Air Quality AQ Index Pollutant
Yesterday Moderate
PM2.5
Yesterday Moderate
OZONE
Current Moderate
PM2.5
Current Good
OZONE
Wednesday Moderate
OZONE
Wednesday Good
PM2.5
Thursday Good
OZONE
Thursday Good
PM2.5
Friday Good
OZONE
Friday Good
PM2.5
Saturday Good
OZONE
Saturday Good
PM2.5
Sunday Good
OZONE
Sunday Good
PM2.5

Snow Depth

Station Depth Elevation
No new snow has been reported.

Earthquake Activity

City Distance Mag. Time & Date
Stillwater, Oklahoma 46 miles 3.1 10:44 AM CDT
2014-08-27
Guthrie, Oklahoma 23 miles 3.2 11:05 AM CDT
2014-08-26
Perry, Oklahoma 49 miles 2.5 8:07 AM CDT
2014-08-26
Medford, Oklahoma 95 miles 2.6 2:59 AM CDT
2014-08-26
Minimum magnitude displayed is 2.5.

Coastal Water Temperatures

Place Temperature
No Stations Reporting

Nearby Weather Stations